Time;durP1;ratioP1;P1;durP2;ratioP2;P2;SDS_P1;SDS_P2;PMS_P1;PMS_P2;Temp;Humidity;BMP_temperature;BMP_pressure;BME280_temperature;BME280_humidity;BME280_pressure;Samples;Min_cycle;Max_cycle;Signal;HPM_P1;HPM_P2
2022/12/19 00:01:36;;;;;;;10.15;5.35;;;-1.50;99.90;;;;;;5093232;28;20044;-62
2022/12/19 00:04:06;;;;;;;11.82;5.35;;;-1.60;99.90;;;;;;5103112;28;20044;-61
2022/12/19 00:06:36;;;;;;;12.90;4.90;;;-1.50;99.90;;;;;;5097079;28;20071;-61
2022/12/19 00:09:09;;;;;;;11.00;4.78;;;-1.50;99.90;;;;;;5091484;28;20036;-61
2022/12/19 00:11:37;;;;;;;10.43;4.88;;;-1.50;99.90;;;;;;5070273;28;20044;-62
2022/12/19 00:14:04;;;;;;;9.52;4.93;;;-1.50;99.90;;;;;;5105815;28;20112;-62
2022/12/19 00:16:31;;;;;;;10.52;4.75;;;-1.60;99.90;;;;;;5111622;28;20071;-62
2022/12/19 00:19:00;;;;;;;10.57;5.28;;;-1.60;99.90;;;;;;5098535;28;20048;-62
2022/12/19 00:21:28;;;;;;;12.82;4.72;;;-1.60;99.90;;;;;;5090389;28;20048;-62
2022/12/19 00:23:56;;;;;;;8.13;4.45;;;-1.60;99.90;;;;;;5111271;28;20040;-61
2022/12/19 00:26:34;;;;;;;11.15;5.00;;;-1.60;99.90;;;;;;5090771;28;20040;-61
2022/12/19 00:29:04;;;;;;;15.40;4.65;;;-1.60;99.90;;;;;;5090778;28;20161;-62
2022/12/19 00:31:38;;;;;;;8.82;4.38;;;-1.60;99.90;;;;;;5072091;28;20074;-62
2022/12/19 00:34:05;;;;;;;12.02;4.78;;;-1.60;99.90;;;;;;5087862;28;20048;-62
2022/12/19 00:36:33;;;;;;;11.02;4.75;;;-1.50;99.90;;;;;;5072073;28;20052;-61
2022/12/19 00:39:02;;;;;;;12.18;4.80;;;-1.50;99.90;;;;;;5089174;28;20048;-62
2022/12/19 00:41:36;;;;;;;11.55;4.13;;;-1.40;99.90;;;;;;5077312;28;20404;-62
2022/12/19 00:44:05;;;;;;;11.48;5.15;;;-1.40;99.90;;;;;;5097125;28;20066;-61
2022/12/19 00:46:34;;;;;;;11.90;5.05;;;-1.30;99.90;;;;;;5072657;28;20037;-62
2022/12/19 00:49:01;;;;;;;12.10;4.63;;;-1.30;99.90;;;;;;5066950;28;20051;-62
2022/12/19 00:51:31;;;;;;;9.98;5.07;;;-1.30;99.90;;;;;;5098991;28;20496;-62
2022/12/19 00:53:58;;;;;;;11.50;4.47;;;-1.20;99.90;;;;;;5072666;28;20500;-62
2022/12/19 00:56:30;;;;;;;12.48;4.38;;;-1.20;99.90;;;;;;5089942;28;20041;-62
2022/12/19 00:59:00;;;;;;;10.48;4.80;;;-1.20;99.90;;;;;;5069819;28;20079;-62
2022/12/19 01:01:30;;;;;;;11.45;3.50;;;-1.30;99.90;;;;;;5089832;28;20036;-62
2022/12/19 01:03:58;;;;;;;11.57;4.43;;;-1.40;99.90;;;;;;5089996;28;20044;-62
2022/12/19 01:06:45;;;;;;;10.55;4.88;;;-1.40;99.90;;;;;;5051875;28;20514;-62
2022/12/19 01:09:12;;;;;;;12.00;5.07;;;-1.30;99.90;;;;;;5090460;28;20048;-62
2022/12/19 01:14:24;;;;;;;11.05;3.97;;;-1.10;99.90;;;;;;5071248;28;20504;-62
2022/12/19 01:16:51;;;;;;;9.77;4.03;;;-1.10;99.90;;;;;;5090706;28;20071;-62
2022/12/19 01:19:18;;;;;;;12.43;4.72;;;-1.10;99.90;;;;;;5072046;28;20058;-61
2022/12/19 01:21:45;;;;;;;10.60;4.38;;;-1.00;99.90;;;;;;5072039;28;20097;-61
2022/12/19 01:24:12;;;;;;;8.10;4.05;;;-1.00;99.90;;;;;;5095251;28;20443;-61
2022/12/19 01:26:41;;;;;;;10.23;4.45;;;-1.00;99.90;;;;;;5092762;28;20048;-61
2022/12/19 01:29:08;;;;;;;8.48;4.47;;;-1.00;99.90;;;;;;5111095;28;20036;-61
2022/12/19 01:31:34;;;;;;;9.23;4.38;;;-0.90;99.90;;;;;;5081811;28;20048;-61
2022/12/19 01:34:01;;;;;;;9.48;3.33;;;-1.00;99.90;;;;;;5102865;22;20051;-62
2022/12/19 01:37:07;;;;;;;12.60;4.63;;;-0.90;99.90;;;;;;5073322;28;20051;-62
2022/12/19 01:39:34;;;;;;;8.27;3.97;;;-0.90;99.90;;;;;;5094006;28;20164;-62
2022/12/19 01:42:05;;;;;;;9.05;4.18;;;-0.90;99.90;;;;;;5098307;28;20097;-62
2022/12/19 01:44:35;;;;;;;9.65;4.68;;;-0.90;99.90;;;;;;5055525;28;20040;-62
2022/12/19 01:47:02;;;;;;;11.93;4.80;;;-0.90;99.90;;;;;;5073985;28;20072;-62
2022/12/19 01:49:35;;;;;;;9.35;4.60;;;-0.90;99.90;;;;;;5065280;28;20514;-62
2022/12/19 01:52:06;;;;;;;10.85;4.60;;;-0.80;99.90;;;;;;5073610;28;20037;-62
2022/12/19 01:54:36;;;;;;;9.77;4.57;;;-0.80;99.90;;;;;;5072710;28;20044;-63
2022/12/19 01:57:05;;;;;;;10.77;4.95;;;-0.80;99.90;;;;;;5082744;28;20059;-62
2022/12/19 01:59:48;;;;;;;12.40;4.95;;;-0.80;99.90;;;;;;5061366;28;20055;-62
2022/12/19 02:02:24;;;;;;;10.60;4.88;;;-0.80;99.90;;;;;;5070009;28;20565;-62
2022/12/19 02:04:51;;;;;;;13.30;5.22;;;-0.80;99.90;;;;;;5062473;28;20394;-62
2022/12/19 02:07:21;;;;;;;10.50;4.63;;;-0.80;99.90;;;;;;5073509;28;20488;-62
2022/12/19 02:09:52;;;;;;;11.20;4.50;;;-0.70;99.90;;;;;;5058124;28;20041;-62
2022/12/19 02:12:31;;;;;;;9.68;4.30;;;-0.70;99.90;;;;;;5055337;28;20037;-62
2022/12/19 02:15:00;;;;;;;14.68;4.30;;;-0.70;99.90;;;;;;5056048;28;20139;-62
2022/12/19 02:17:50;;;;;;;10.07;4.05;;;-0.70;99.90;;;;;;5055672;28;20513;-62
2022/12/19 02:20:59;;;;;;;9.18;4.80;;;-0.60;99.90;;;;;;5067871;28;20140;-62
2022/12/19 02:27:50;;;;;;;10.48;4.22;;;-0.60;99.90;;;;;;5075844;28;20102;-63
2022/12/19 02:30:53;;;;;;;7.72;4.25;;;-0.70;99.90;;;;;;5055052;28;20452;-62
2022/12/19 02:33:43;;;;;;;12.93;4.82;;;-0.80;99.90;;;;;;5054987;28;20131;-63
2022/12/19 02:36:38;;;;;;;8.02;3.53;;;-0.90;99.90;;;;;;5059556;28;20551;-62
2022/12/19 02:39:32;;;;;;;8.93;3.60;;;-0.90;99.90;;;;;;5047477;28;20049;-62
2022/12/19 02:42:03;;;;;;;10.18;4.50;;;-0.90;99.90;;;;;;5049425;28;20052;-62
2022/12/19 02:44:39;;;;;;;8.73;4.95;;;-0.90;99.90;;;;;;5063412;28;20405;-62
2022/12/19 02:47:06;;;;;;;8.90;4.15;;;-0.80;99.90;;;;;;5054744;28;20516;-63
2022/12/19 02:49:36;;;;;;;10.63;4.70;;;-0.70;99.90;;;;;;5061853;28;20102;-62
2022/12/19 02:52:18;;;;;;;10.50;4.28;;;-0.70;99.90;;;;;;5070490;28;20040;-62
2022/12/19 02:54:52;;;;;;;7.05;3.78;;;-0.70;99.90;;;;;;5071120;28;20048;-62
2022/12/19 02:57:26;;;;;;;7.13;3.83;;;-0.70;99.90;;;;;;5058507;28;20060;-62
2022/12/19 03:00:07;;;;;;;8.88;3.88;;;-0.70;99.90;;;;;;5091527;28;20497;-62
2022/12/19 03:03:01;;;;;;;9.10;4.32;;;-0.60;99.90;;;;;;5055598;28;20048;-62
2022/12/19 03:05:49;;;;;;;9.18;3.80;;;-0.60;99.90;;;;;;5050102;28;20040;-62
2022/12/19 03:08:36;;;;;;;12.88;4.68;;;-0.50;99.90;;;;;;5078560;28;20029;-62
2022/12/19 03:11:10;;;;;;;10.68;3.55;;;-0.50;99.90;;;;;;5079164;28;20089;-62
2022/12/19 03:13:52;;;;;;;;;;;-0.60;99.90;;;;;;5074377;28;20515;-62
2022/12/19 03:16:19;;;;;;;12.05;4.28;;;-0.60;99.90;;;;;;5069327;28;20438;-62
2022/12/19 03:18:45;;;;;;;9.55;3.70;;;-0.70;99.90;;;;;;5074512;28;20488;-62
2022/12/19 03:21:20;;;;;;;7.90;3.83;;;-0.70;99.90;;;;;;5073696;28;20378;-62
2022/12/19 03:23:49;;;;;;;7.72;3.33;;;-0.70;99.90;;;;;;5092318;28;20064;-62
2022/12/19 03:26:19;;;;;;;7.30;3.55;;;-0.70;99.90;;;;;;5083100;28;20497;-62
2022/12/19 03:28:51;;;;;;;7.50;3.45;;;-0.70;99.90;;;;;;5072498;28;20094;-63
2022/12/19 03:31:22;;;;;;;7.82;3.72;;;-0.70;99.90;;;;;;5071964;28;20079;-62
2022/12/19 03:33:54;;;;;;;9.13;4.28;;;-0.70;99.90;;;;;;5071836;28;20413;-62
2022/12/19 03:36:27;;;;;;;8.05;4.40;;;-0.70;99.90;;;;;;5072411;28;20041;-62
2022/12/19 03:38:55;;;;;;;9.48;4.30;;;-0.60;99.90;;;;;;5092624;28;20397;-62
2022/12/19 03:44:14;;;;;;;6.88;3.65;;;-0.60;99.90;;;;;;5071703;28;20052;-62
2022/12/19 03:46:48;;;;;;;12.20;4.53;;;-0.60;99.90;;;;;;5071326;28;20048;-62
2022/12/19 03:49:15;;;;;;;8.75;4.43;;;-0.60;99.90;;;;;;5072700;28;20550;-62
2022/12/19 03:52:10;;;;;;;12.52;5.03;;;-0.50;99.90;;;;;;5076924;28;20036;-63
2022/12/19 03:54:42;;;;;;;12.13;4.70;;;-0.50;99.90;;;;;;5061719;28;20087;-62
2022/12/19 03:57:17;;;;;;;9.35;4.50;;;-0.10;99.90;;;;;;5092069;28;20039;-62
2022/12/19 03:59:48;;;;;;;8.52;4.70;;;-0.40;99.90;;;;;;5080837;28;20113;-62
2022/12/19 04:02:17;;;;;;;9.40;4.90;;;-0.40;99.90;;;;;;5070529;28;20573;-62
2022/12/19 04:04:52;;;;;;;8.68;4.10;;;-0.40;99.90;;;;;;5071314;28;20136;-62
2022/12/19 04:07:20;;;;;;;9.65;4.40;;;-0.40;99.90;;;;;;5071418;28;20048;-62
2022/12/19 04:09:49;;;;;;;9.57;4.32;;;-0.30;99.90;;;;;;5070607;28;20036;-62
2022/12/19 04:12:20;;;;;;;9.18;3.90;;;-0.30;99.90;;;;;;5070983;28;20068;-62
2022/12/19 04:14:48;;;;;;;7.28;3.88;;;-0.30;99.90;;;;;;5078532;28;20044;-62
2022/12/19 04:17:34;;;;;;;7.82;3.80;;;-0.40;99.90;;;;;;5071471;28;20076;-62
2022/12/19 04:20:14;;;;;;;11.07;3.70;;;-0.50;99.90;;;;;;5071247;28;20101;-62
2022/12/19 04:22:49;;;;;;;8.07;3.35;;;-0.50;99.90;;;;;;5088414;28;20044;-62
2022/12/19 04:25:21;;;;;;;8.40;3.80;;;-0.60;99.90;;;;;;5079726;28;20041;-62
2022/12/19 04:27:58;;;;;;;9.52;3.70;;;-0.60;99.90;;;;;;5079108;28;20385;-62
2022/12/19 04:30:25;;;;;;;6.47;3.78;;;-0.60;99.90;;;;;;5087865;28;20098;-62
2022/12/19 04:32:52;;;;;;;8.55;2.83;;;-0.60;99.90;;;;;;5090935;28;20075;-62
2022/12/19 04:35:19;;;;;;;8.13;3.90;;;-0.70;99.90;;;;;;5087788;28;20032;-62
2022/12/19 04:37:46;;;;;;;6.75;2.80;;;-0.60;99.90;;;;;;5082556;28;20101;-62
2022/12/19 04:40:13;;;;;;;10.20;4.13;;;-0.70;99.90;;;;;;5077900;28;20048;-62
2022/12/19 04:42:39;;;;;;;9.80;4.07;;;-0.70;99.90;;;;;;5070280;28;20074;-62
2022/12/19 04:45:06;;;;;;;5.03;2.42;;;-0.70;99.90;;;;;;5073503;28;20074;-62
2022/12/19 04:47:33;;;;;;;;;;;-0.80;99.90;;;;;;5075751;28;20058;-62
2022/12/19 04:50:00;;;;;;;13.93;4.40;;;-0.80;99.90;;;;;;5070383;28;19920;-62
2022/12/19 04:52:27;;;;;;;14.88;4.57;;;-0.80;99.90;;;;;;5070150;28;20036;-62
2022/12/19 04:54:53;;;;;;;5.63;2.78;;;-0.80;99.90;;;;;;5078195;28;20052;-62
2022/12/19 04:57:20;;;;;;;10.88;4.57;;;-0.80;99.90;;;;;;5080949;28;20149;-62
2022/12/19 04:59:47;;;;;;;18.58;7.55;;;-0.80;99.90;;;;;;5070258;28;20102;-62
2022/12/19 05:02:14;;;;;;;14.88;6.35;;;-0.80;99.90;;;;;;5072488;28;20044;-63
2022/12/19 05:04:41;;;;;;;14.57;6.20;;;-0.70;99.90;;;;;;5070226;28;20051;-62
2022/12/19 05:07:07;;;;;;;21.23;8.15;;;-0.70;99.90;;;;;;5084900;28;20040;-62
2022/12/19 05:09:34;;;;;;;18.00;8.70;;;-0.70;99.90;;;;;;5082980;28;20041;-62
2022/12/19 05:12:01;;;;;;;22.67;9.40;;;-0.70;99.90;;;;;;5070300;28;20045;-62
2022/12/19 05:14:27;;;;;;;28.65;11.02;;;-0.70;99.90;;;;;;5090717;28;20036;-62
2022/12/19 05:16:54;;;;;;;36.50;13.55;;;-0.70;99.90;;;;;;5086252;28;20085;-62
2022/12/19 05:19:27;;;;;;;16.70;7.00;;;-0.70;99.90;;;;;;5070102;28;20063;-62
2022/12/19 05:21:54;;;;;;;14.60;6.75;;;-0.70;99.90;;;;;;5092248;28;20113;-62
2022/12/19 05:24:21;;;;;;;16.20;6.45;;;0.20;99.90;;;;;;5089945;28;20040;-62
2022/12/19 05:26:48;;;;;;;15.50;6.75;;;-0.70;99.90;;;;;;5086549;28;20078;-62
2022/12/19 05:29:16;;;;;;;14.38;6.70;;;-0.70;99.90;;;;;;5093151;28;20583;-62
2022/12/19 05:31:42;;;;;;;;;;;-0.70;99.90;;;;;;5092658;28;20381;-62
2022/12/19 05:34:10;;;;;;;15.80;6.43;;;-0.60;99.90;;;;;;5091849;28;20292;-62
2022/12/19 05:36:36;;;;;;;7.55;3.55;;;-0.70;99.90;;;;;;5092614;28;20036;-62
2022/12/19 05:39:03;;;;;;;10.05;4.55;;;-0.80;99.90;;;;;;5092887;28;20036;-62
2022/12/19 05:41:30;;;;;;;9.65;4.72;;;-0.80;99.90;;;;;;5091861;28;20032;-62
2022/12/19 05:43:57;;;;;;;6.18;2.97;;;-0.70;99.90;;;;;;5092528;28;20040;-62
2022/12/19 05:46:24;;;;;;;15.85;6.10;;;-0.70;99.90;;;;;;5091365;28;20089;-62
2022/12/19 05:48:51;;;;;;;;;;;-0.70;99.90;;;;;;5081458;28;20045;-62
2022/12/19 05:51:17;;;;;;;12.45;5.47;;;-0.80;99.90;;;;;;5073654;28;19920;-62
2022/12/19 05:53:44;;;;;;;10.90;5.38;;;-0.90;99.90;;;;;;5079411;28;20044;-62
2022/12/19 05:56:20;;;;;;;13.27;5.78;;;-0.90;99.90;;;;;;5086864;28;20094;-62
2022/12/19 05:58:48;;;;;;;11.90;4.90;;;-0.90;99.90;;;;;;5093641;28;20044;-62
2022/12/19 06:01:20;;;;;;;10.45;4.50;;;-1.00;99.90;;;;;;5087054;28;20500;-62
2022/12/19 06:03:48;;;;;;;7.78;4.13;;;-0.90;99.90;;;;;;5073399;28;20044;-62
2022/12/19 06:06:16;;;;;;;;;;;-0.90;99.90;;;;;;5072682;28;20052;-61
2022/12/19 06:08:43;;;;;;;8.60;4.50;;;-0.90;99.90;;;;;;5073713;28;19968;-62
2022/12/19 06:11:11;;;;;;;7.30;3.55;;;-0.80;99.90;;;;;;5074179;28;20506;-62
2022/12/19 06:13:39;;;;;;;6.75;3.42;;;-0.70;99.90;;;;;;5072095;28;20416;-62
2022/12/19 06:16:12;;;;;;;9.57;4.38;;;-0.70;99.90;;;;;;5072972;28;20037;-62
2022/12/19 06:18:43;;;;;;;8.68;4.43;;;-0.70;99.90;;;;;;5073127;28;20033;-62
2022/12/19 06:21:19;;;;;;;13.48;5.95;;;-0.70;99.90;;;;;;5073446;28;20040;-62
2022/12/19 06:23:46;;;;;;;10.88;5.93;;;-0.70;99.90;;;;;;5073104;28;20044;-62
2022/12/19 06:26:16;;;;;;;16.83;5.80;;;-0.70;99.90;;;;;;5075385;28;20119;-62
2022/12/19 06:28:50;;;;;;;16.88;7.07;;;-0.60;99.90;;;;;;5085366;28;20071;-62
2022/12/19 06:31:19;;;;;;;21.48;10.45;;;-0.60;99.90;;;;;;5091992;28;20043;-62
2022/12/19 06:33:46;;;;;;;24.33;11.15;;;-0.60;99.90;;;;;;5092512;28;20119;-62
2022/12/19 06:36:14;;;;;;;24.80;9.90;;;-0.60;99.90;;;;;;5077512;28;20040;-62
2022/12/19 06:38:41;;;;;;;29.55;11.95;;;-0.50;99.90;;;;;;5093265;28;20048;-62
2022/12/19 06:44:04;;;;;;;18.20;7.53;;;-0.40;99.90;;;;;;5087821;28;20076;-62
2022/12/19 06:46:31;;;;;;;17.38;8.00;;;-0.40;99.90;;;;;;5073088;28;20055;-62
2022/12/19 06:48:58;;;;;;;22.95;9.35;;;-0.30;99.90;;;;;;5073269;28;20040;-62
2022/12/19 06:51:25;;;;;;;24.05;10.50;;;-0.20;99.90;;;;;;5072783;28;20040;-62
2022/12/19 06:53:52;;;;;;;18.80;9.93;;;-0.20;99.90;;;;;;5080839;28;20041;-62
2022/12/19 06:56:19;;;;;;;16.10;7.18;;;-0.20;99.90;;;;;;5072821;28;20045;-62
2022/12/19 06:58:46;;;;;;;19.45;7.40;;;-0.10;99.90;;;;;;5071163;28;20044;-62
2022/12/19 07:01:20;;;;;;;20.58;8.77;;;-0.10;99.90;;;;;;5072430;28;20041;-62
2022/12/19 07:03:48;;;;;;;18.48;7.85;;;-0.10;99.90;;;;;;5072149;28;20058;-62
2022/12/19 07:06:15;;;;;;;13.90;6.05;;;-0.10;99.90;;;;;;5072448;28;20269;-62
2022/12/19 07:08:42;;;;;;;17.27;6.68;;;-0.10;99.90;;;;;;5072423;28;20040;-62
2022/12/19 07:11:08;;;;;;;12.57;4.18;;;0.10;99.90;;;;;;5072539;28;20041;-62
2022/12/19 07:13:35;;;;;;;14.68;6.97;;;0.10;99.90;;;;;;5070739;28;20516;-62
2022/12/19 07:16:04;;;;;;;14.90;6.65;;;0.20;99.90;;;;;;5086251;28;20036;-62
2022/12/19 07:18:35;;;;;;;15.52;6.95;;;0.20;99.90;;;;;;5090048;28;20051;-62
2022/12/19 07:21:03;;;;;;;19.45;7.22;;;0.20;99.90;;;;;;5078404;28;20123;-62
2022/12/19 07:23:30;;;;;;;13.30;6.43;;;0.10;99.90;;;;;;5092142;28;20040;-62
2022/12/19 07:25:57;;;;;;;16.25;5.43;;;0.10;99.90;;;;;;5085763;28;20095;-62
2022/12/19 07:28:24;;;;;;;10.77;5.53;;;0.20;99.90;;;;;;5079563;28;20072;-62
2022/12/19 07:30:51;;;;;;;27.25;9.85;;;0.20;99.90;;;;;;5072666;28;20066;-62
2022/12/19 07:37:41;;;;;;;20.30;9.18;;;0.30;99.90;;;;;;5048343;27;20110;-71
2022/12/19 07:40:08;;;;;;;14.73;7.63;;;0.30;99.90;;;;;;5110765;28;20516;-71
2022/12/19 07:42:35;;;;;;;14.55;7.38;;;0.20;99.90;;;;;;5120632;27;20100;-71
2022/12/19 07:45:02;;;;;;;20.50;8.07;;;0.30;99.90;;;;;;5153181;27;20043;-71
2022/12/19 07:47:29;;;;;;;20.02;8.40;;;0.30;99.90;;;;;;5135030;27;20043;-72
2022/12/19 07:49:55;;;;;;;27.42;9.93;;;0.40;99.90;;;;;;5153744;27;20406;-72
2022/12/19 07:52:22;;;;;;;32.90;11.98;;;0.40;99.90;;;;;;5132829;27;20073;-71
2022/12/19 07:54:49;;;;;;;21.08;9.68;;;0.60;99.90;;;;;;5094130;28;20093;-72
2022/12/19 07:57:16;;;;;;;23.75;10.02;;;0.60;99.90;;;;;;5111969;28;20040;-71
2022/12/19 07:59:43;;;;;;;20.52;8.10;;;0.70;99.90;;;;;;5152940;27;20099;-71
2022/12/19 08:02:10;;;;;;;22.77;8.65;;;0.70;99.90;;;;;;5152517;27;20087;-71
2022/12/19 08:04:37;;;;;;;20.67;9.57;;;0.80;99.90;;;;;;5153623;27;20445;-71
2022/12/19 08:07:04;;;;;;;20.20;8.63;;;0.80;99.90;;;;;;5134906;27;20070;-72
2022/12/19 08:09:31;;;;;;;20.10;8.73;;;0.90;99.90;;;;;;5134024;27;20030;-72
2022/12/19 08:11:58;;;;;;;16.63;8.18;;;1.00;99.90;;;;;;5152275;27;20047;-71
2022/12/19 08:14:25;;;;;;;14.35;7.30;;;1.10;99.90;;;;;;5153151;27;20036;-71
2022/12/19 08:16:51;;;;;;;18.40;6.60;;;1.20;99.90;;;;;;5124007;27;20099;-72
2022/12/19 08:19:38;;;;;;;15.43;5.65;;;1.20;99.90;;;;;;5131921;27;20352;-71
2022/12/19 08:22:05;;;;;;;10.05;4.90;;;1.30;99.90;;;;;;5131957;27;20096;-71
2022/12/19 08:24:32;;;;;;;11.85;5.22;;;1.30;99.90;;;;;;5130053;27;20441;-71
2022/12/19 08:26:58;;;;;;;13.07;6.10;;;1.30;99.90;;;;;;5132123;27;20035;-71
2022/12/19 08:29:25;;;;;;;17.88;7.13;;;1.30;99.90;;;;;;5126624;27;20035;-71
2022/12/19 08:31:52;;;;;;;18.90;7.22;;;1.30;99.90;;;;;;5131792;27;20039;-71
2022/12/19 08:34:18;;;;;;;15.52;7.40;;;1.30;99.90;;;;;;5131882;27;20050;-71
2022/12/19 08:36:45;;;;;;;17.65;6.20;;;1.30;99.90;;;;;;5132526;27;20462;-71
2022/12/19 08:39:12;;;;;;;21.45;8.77;;;1.40;99.90;;;;;;5130519;27;20051;-71
2022/12/19 08:41:39;;;;;;;22.38;8.10;;;1.40;99.90;;;;;;5131699;28;20112;-71
2022/12/19 08:44:06;;;;;;;22.90;8.48;;;1.50;99.90;;;;;;5128877;28;20039;-71
2022/12/19 08:46:32;;;;;;;17.45;7.70;;;1.60;99.90;;;;;;5131687;28;20039;-71
2022/12/19 08:48:59;;;;;;;15.57;6.55;;;1.70;99.90;;;;;;5134474;27;20035;-71
2022/12/19 08:51:26;;;;;;;14.20;7.47;;;1.70;99.90;;;;;;5130383;27;20088;-71
2022/12/19 08:53:53;;;;;;;11.23;5.22;;;1.90;99.90;;;;;;5132301;27;20403;-71
2022/12/19 08:56:20;;;;;;;20.85;10.68;;;1.90;99.90;;;;;;5135572;27;20084;-71
2022/12/19 08:58:50;;;;;;;22.15;9.15;;;1.90;99.90;;;;;;5136039;27;20096;-71
2022/12/19 09:01:18;;;;;;;16.90;8.23;;;1.90;99.90;;;;;;5134480;27;20498;-71
2022/12/19 09:03:46;;;;;;;17.65;8.80;;;2.00;99.90;;;;;;5127205;27;20043;-71
2022/12/19 09:06:33;;;;;;;11.47;5.50;;;1.90;99.90;;;;;;5132393;27;20050;-71
2022/12/19 09:09:01;;;;;;;13.65;6.93;;;1.90;99.90;;;;;;5129806;27;20070;-71
2022/12/19 09:11:28;;;;;;;16.88;7.57;;;1.80;99.90;;;;;;5134628;27;20047;-71
2022/12/19 09:13:56;;;;;;;16.15;7.90;;;1.90;99.90;;;;;;5135010;27;20035;-71
2022/12/19 09:16:26;;;;;;;16.52;8.45;;;1.90;99.90;;;;;;5132538;27;20043;-71
2022/12/19 09:18:55;;;;;;;11.25;6.68;;;1.90;99.90;;;;;;5122029;27;20040;-71
2022/12/19 09:21:24;;;;;;;16.30;6.50;;;2.00;99.90;;;;;;5113703;28;20089;-71
2022/12/19 09:23:52;;;;;;;13.00;6.65;;;1.90;99.90;;;;;;5126985;27;20043;-71
2022/12/19 09:26:21;;;;;;;22.10;8.25;;;2.10;99.90;;;;;;5126901;27;20043;-71
2022/12/19 09:28:49;;;;;;;15.80;7.40;;;2.10;99.90;;;;;;5135479;27;20043;-71
2022/12/19 09:31:19;;;;;;;22.10;9.10;;;2.30;99.90;;;;;;5140393;27;20510;-71
2022/12/19 09:33:46;;;;;;;14.35;7.15;;;2.30;99.90;;;;;;5154254;27;20035;-71
2022/12/19 09:36:15;;;;;;;15.77;7.55;;;2.30;99.90;;;;;;5133319;27;20046;-71
2022/12/19 09:38:42;;;;;;;11.73;6.32;;;2.20;99.90;;;;;;5135227;27;20104;-71
2022/12/19 09:41:30;;;;;;;13.95;7.47;;;2.30;99.90;;;;;;5135471;27;20054;-71
2022/12/19 09:44:21;;;;;;;24.30;8.07;;;2.30;99.90;;;;;;5126317;27;20092;-71
2022/12/19 09:46:53;;;;;;;16.23;8.27;;;2.30;99.90;;;;;;5118464;27;20039;-71
2022/12/19 09:49:31;;;;;;;15.90;6.95;;;2.30;99.90;;;;;;5134648;27;20085;-71
2022/12/19 09:52:12;;;;;;;15.93;6.75;;;2.20;99.90;;;;;;5134840;27;20043;-71
2022/12/19 09:54:50;;;;;;;15.85;8.40;;;2.20;99.90;;;;;;5124525;27;20673;-71
2022/12/19 09:57:25;;;;;;;16.52;8.73;;;2.40;99.90;;;;;;5135017;27;20483;-71
2022/12/19 10:00:00;;;;;;;15.48;6.90;;;2.30;99.90;;;;;;5134095;27;20088;-71
2022/12/19 10:02:45;;;;;;;23.13;10.48;;;2.30;99.90;;;;;;5127298;27;20051;-70
2022/12/19 10:05:37;;;;;;;19.80;10.00;;;2.30;99.90;;;;;;5130388;27;20047;-71
2022/12/19 10:08:31;;;;;;;22.63;8.25;;;2.40;99.90;;;;;;5126829;27;20054;-71
2022/12/19 10:11:13;;;;;;;14.50;5.93;;;2.40;99.90;;;;;;5128690;27;20039;-71
2022/12/19 10:14:06;;;;;;;13.50;6.40;;;2.50;99.90;;;;;;5107050;28;20044;-71
2022/12/19 10:17:01;;;;;;;18.60;8.68;;;2.60;99.90;;;;;;5114125;28;20446;-71
2022/12/19 10:20:14;;;;;;;13.73;6.65;;;2.60;99.90;;;;;;5122712;27;20054;-71
2022/12/19 10:22:50;;;;;;;15.60;7.03;;;2.60;99.90;;;;;;5113730;28;20043;-71
2022/12/19 10:25:51;;;;;;;12.10;6.22;;;2.60;99.90;;;;;;5114265;28;20089;-69
2022/12/19 10:28:55;;;;;;;14.57;7.60;;;2.70;99.90;;;;;;5117212;27;20047;-70
2022/12/19 10:31:28;;;;;;;23.67;6.60;;;2.70;99.90;;;;;;5122654;27;20050;-70
2022/12/19 10:34:17;;;;;;;16.05;7.07;;;2.70;99.90;;;;;;5134114;27;20031;-70
2022/12/19 10:36:48;;;;;;;20.15;6.60;;;2.80;99.90;;;;;;5133510;27;20068;-70
2022/12/19 10:39:45;;;;;;;17.73;7.72;;;2.90;99.90;;;;;;5134109;27;20050;-70
2022/12/19 10:42:32;;;;;;;20.05;8.43;;;3.00;99.90;;;;;;5124430;27;20492;-70
2022/12/19 10:45:03;;;;;;;21.48;7.07;;;3.10;99.90;;;;;;5113702;28;20056;-70
2022/12/19 10:47:30;;;;;;;22.02;8.50;;;3.10;99.90;;;;;;5113689;28;20039;-70
2022/12/19 10:49:57;;;;;;;26.00;10.25;;;3.00;99.90;;;;;;5118647;27;20039;-70
2022/12/19 10:52:51;;;;;;;22.88;9.52;;;3.10;99.90;;;;;;5123915;27;20085;-70
2022/12/19 10:55:35;;;;;;;18.52;7.80;;;3.20;99.90;;;;;;5147478;27;20035;-70
2022/12/19 10:58:11;;;;;;;16.77;6.53;;;3.30;99.90;;;;;;5153769;27;20042;-70
2022/12/19 11:01:04;;;;;;;21.70;7.22;;;3.40;99.90;;;;;;5154739;27;20067;-70
2022/12/19 11:03:34;;;;;;;23.55;8.88;;;3.50;99.90;;;;;;5122704;27;20047;-70
2022/12/19 11:06:03;;;;;;;12.05;5.88;;;3.50;99.90;;;;;;5133818;27;20035;-70
2022/12/19 11:08:36;;;;;;;11.43;5.80;;;3.60;99.90;;;;;;5132777;27;20479;-70
2022/12/19 11:11:03;;;;;;;14.70;6.72;;;3.70;99.90;;;;;;5142485;27;20038;-70
2022/12/19 11:13:50;;;;;;;13.75;6.22;;;3.70;99.90;;;;;;5154142;27;20043;-70
2022/12/19 11:16:37;;;;;;;20.20;8.10;;;3.60;99.90;;;;;;5154278;27;20426;-70
2022/12/19 11:19:31;;;;;;;21.90;8.02;;;3.60;99.90;;;;;;5142108;27;20039;-70
2022/12/19 11:22:23;;;;;;;13.52;6.22;;;3.60;99.90;;;;;;5116336;27;20039;-70
2022/12/19 11:25:16;;;;;;;12.23;5.93;;;3.40;99.90;;;;;;5113051;28;20123;-70
2022/12/19 11:28:08;;;;;;;15.05;6.57;;;3.40;99.90;;;;;;5120464;27;20036;-70
2022/12/19 11:31:15;;;;;;;13.80;5.78;;;3.40;99.90;;;;;;5111637;27;20049;-70
2022/12/19 11:34:05;;;;;;;10.55;5.15;;;3.50;99.90;;;;;;5133445;27;20043;-70
2022/12/19 11:36:40;;;;;;;11.82;5.53;;;3.60;99.90;;;;;;5123217;27;20048;-70
2022/12/19 11:39:17;;;;;;;10.70;5.70;;;3.60;99.90;;;;;;5133596;27;20047;-70
2022/12/19 11:41:53;;;;;;;14.77;6.45;;;3.60;99.90;;;;;;5121699;27;20100;-70
2022/12/19 11:44:45;;;;;;;16.08;6.03;;;3.50;99.90;;;;;;5122248;27;20117;-70
2022/12/19 11:47:19;;;;;;;18.58;9.35;;;3.60;99.90;;;;;;5132905;27;20118;-70
2022/12/19 11:50:18;;;;;;;14.20;7.00;;;3.60;99.90;;;;;;5133050;27;20092;-70
2022/12/19 11:52:57;;;;;;;12.32;6.40;;;3.70;99.90;;;;;;5128038;27;20488;-70
2022/12/19 11:56:04;;;;;;;14.38;6.55;;;3.80;99.90;;;;;;5123530;27;20425;-70
2022/12/19 11:58:43;;;;;;;;;;;3.80;99.90;;;;;;5133076;27;20130;-70
2022/12/19 12:01:26;;;;;;;15.85;7.22;;;3.70;99.90;;;;;;5132710;27;20383;-70
2022/12/19 12:04:17;;;;;;;14.25;6.35;;;3.70;99.90;;;;;;5112294;27;20050;-70
2022/12/19 12:06:51;;;;;;;19.13;7.07;;;3.70;99.90;;;;;;5123793;27;20473;-70
2022/12/19 12:09:36;;;;;;;15.80;6.80;;;3.60;99.90;;;;;;5126689;27;20105;-70
2022/12/19 12:12:41;;;;;;;15.48;6.93;;;3.60;99.90;;;;;;5120231;27;20035;-70
2022/12/19 12:15:59;;;;;;;13.45;6.28;;;3.60;99.90;;;;;;5132325;27;20043;-70
2022/12/19 12:19:13;;;;;;;17.30;7.88;;;3.70;99.90;;;;;;5125770;27;20407;-69
2022/12/19 12:22:39;;;;;;;22.35;9.95;;;3.80;99.90;;;;;;5131622;27;20136;-70
2022/12/19 12:25:51;;;;;;;28.92;10.98;;;3.80;99.90;;;;;;5109102;27;20065;-70
2022/12/19 12:29:04;;;;;;;27.77;10.98;;;3.80;99.90;;;;;;5124761;27;20052;-70
2022/12/19 12:32:37;;;;;;;16.95;7.05;;;3.70;99.90;;;;;;5131583;27;20059;-70
2022/12/19 12:35:36;;;;;;;20.77;9.75;;;3.80;99.90;;;;;;5128990;27;20513;-70
2022/12/19 12:38:41;;;;;;;15.40;7.50;;;3.80;99.90;;;;;;5131126;27;20051;-70
2022/12/19 12:44:31;;;;;;;26.02;10.02;;;3.80;99.90;;;;;;5129364;27;20039;-70
2022/12/19 12:47:25;;;;;;;29.88;14.25;;;3.90;99.90;;;;;;5132066;28;20043;-70
2022/12/19 12:50:02;;;;;;;25.20;11.75;;;3.80;99.90;;;;;;5131777;28;20475;-70
2022/12/19 12:52:37;;;;;;;16.20;8.63;;;3.80;99.90;;;;;;5123622;28;20120;-69
2022/12/19 12:55:28;;;;;;;19.17;8.10;;;3.70;99.90;;;;;;5122677;28;20042;-70
2022/12/19 12:57:55;;;;;;;13.15;6.43;;;3.70;99.90;;;;;;5105450;28;20044;-69
2022/12/19 13:00:33;;;;;;;11.05;6.70;;;3.50;99.90;;;;;;5114509;28;20047;-70
2022/12/19 13:03:11;;;;;;;11.80;5.80;;;3.50;99.90;;;;;;5128587;28;20035;-69
2022/12/19 13:05:38;;;;;;;;;;;3.60;99.90;;;;;;5132283;28;20040;-70
2022/12/19 13:08:42;;;;;;;11.68;5.45;;;3.60;99.90;;;;;;5130911;28;20444;-70
2022/12/19 13:14:38;;;;;;;12.75;6.25;;;3.90;99.90;;;;;;5131525;28;20039;-70
2022/12/19 13:17:31;;;;;;;11.77;6.00;;;4.00;99.90;;;;;;5128883;28;20509;-70
2022/12/19 13:20:03;;;;;;;14.40;7.50;;;4.10;99.90;;;;;;5094006;28;20475;-70
2022/12/19 13:22:31;;;;;;;20.60;8.98;;;4.10;99.90;;;;;;5131225;28;20043;-69
2022/12/19 13:24:59;;;;;;;;;;;4.20;99.90;;;;;;5132509;28;20051;-70
2022/12/19 13:27:25;;;;;;;15.60;6.45;;;4.20;99.90;;;;;;5124899;28;19965;-69
2022/12/19 13:30:11;;;;;;;16.17;6.57;;;4.00;99.90;;;;;;5131491;28;20066;-69
2022/12/19 13:32:38;;;;;;;12.68;5.75;;;3.90;99.90;;;;;;5131203;28;20049;-71
2022/12/19 13:35:05;;;;;;;14.30;6.80;;;3.90;99.90;;;;;;5088959;22;20432;-62
2022/12/19 13:38:00;;;;;;;15.70;7.25;;;3.90;99.90;;;;;;5061813;28;20037;-62
2022/12/19 13:40:55;;;;;;;13.07;6.95;;;4.00;99.90;;;;;;5046197;28;20497;-62
2022/12/19 13:43:45;;;;;;;17.67;11.32;;;4.00;99.90;;;;;;5053920;28;20179;-62
2022/12/19 13:46:33;;;;;;;15.10;8.20;;;4.00;99.90;;;;;;5070672;28;20055;-62
2022/12/19 13:49:09;;;;;;;20.13;7.20;;;4.00;99.90;;;;;;5054362;28;20108;-62